createdAt,value
2017-07-30T00:01:37.444Z,15.27
2017-07-30T00:04:05.034Z,15.93
2017-07-30T00:06:32.581Z,20.10
2017-07-30T00:09:00.101Z,17.70
2017-07-30T00:11:27.609Z,20.60
2017-07-30T00:13:55.138Z,16.12
2017-07-30T00:16:22.645Z,15.90
2017-07-30T00:18:50.166Z,17.30
2017-07-30T00:21:17.677Z,22.10
2017-07-30T00:23:45.203Z,17.70
2017-07-30T00:26:12.713Z,16.58
2017-07-30T00:28:40.249Z,15.68
2017-07-30T00:31:07.758Z,17.92
2017-07-30T00:33:35.284Z,29.85
2017-07-30T00:36:02.830Z,17.15
2017-07-30T00:38:30.341Z,13.13
2017-07-30T00:40:57.857Z,13.97
2017-07-30T00:43:25.361Z,13.93
2017-07-30T00:45:52.877Z,14.43
2017-07-30T00:48:20.390Z,14.70
2017-07-30T00:50:47.917Z,13.30
2017-07-30T00:53:16.194Z,16.23
2017-07-30T00:55:44.533Z,12.70
2017-07-30T00:58:12.042Z,12.03
2017-07-30T01:00:39.557Z,15.20
2017-07-30T01:03:07.187Z,12.53
2017-07-30T01:05:34.713Z,14.32
2017-07-30T01:08:03.009Z,11.90
2017-07-30T01:10:30.586Z,13.25
2017-07-30T01:12:58.202Z,16.02
2017-07-30T01:15:25.752Z,16.23
2017-07-30T01:17:53.298Z,13.50
2017-07-30T01:20:20.810Z,16.87
2017-07-30T01:22:48.357Z,13.32
2017-07-30T01:25:16.642Z,12.93
2017-07-30T01:27:44.182Z,12.25
2017-07-30T01:30:12.515Z,13.18
2017-07-30T01:32:40.114Z,13.13
2017-07-30T01:35:07.682Z,11.85
2017-07-30T01:37:35.970Z,12.40
2017-07-30T01:40:04.289Z,11.45
2017-07-30T01:42:31.834Z,12.85
2017-07-30T01:44:59.524Z,10.93
2017-07-30T01:47:27.286Z,10.00
2017-07-30T01:49:54.917Z,13.17
2017-07-30T01:52:22.502Z,9.77
2017-07-30T01:54:50.154Z,8.68
2017-07-30T01:57:17.807Z,10.50
2017-07-30T01:59:45.424Z,9.23
2017-07-30T02:02:12.958Z,8.00
2017-07-30T02:04:40.498Z,10.05
2017-07-30T02:07:08.035Z,8.52
2017-07-30T02:09:35.629Z,9.95
2017-07-30T02:12:03.267Z,10.57
2017-07-30T02:14:30.929Z,8.07
2017-07-30T02:16:58.847Z,10.93
2017-07-30T02:19:26.746Z,9.87
2017-07-30T02:21:56.170Z,7.43
2017-07-30T02:24:23.797Z,9.70
2017-07-30T02:26:51.390Z,8.98
2017-07-30T02:29:19.117Z,7.80
2017-07-30T02:31:46.707Z,9.23
2017-07-30T02:34:14.447Z,8.80
2017-07-30T02:36:41.958Z,8.95
2017-07-30T02:39:09.626Z,6.27
2017-07-30T02:41:37.326Z,9.10
2017-07-30T02:44:04.990Z,9.47
2017-07-30T02:46:32.581Z,7.37
2017-07-30T02:49:00.132Z,6.30
2017-07-30T02:51:28.533Z,5.50
2017-07-30T02:53:56.246Z,5.60
2017-07-30T02:56:23.912Z,5.37
2017-07-30T02:58:51.498Z,5.70
2017-07-30T03:01:19.788Z,5.93
2017-07-30T03:03:48.151Z,6.00
2017-07-30T03:06:15.721Z,7.70
2017-07-30T03:08:43.995Z,5.03
2017-07-30T03:11:12.285Z,5.90
2017-07-30T03:13:39.793Z,8.80
2017-07-30T03:16:07.358Z,5.62
2017-07-30T03:18:34.893Z,6.10
2017-07-30T03:21:02.470Z,6.07
2017-07-30T03:23:30.063Z,5.90
2017-07-30T03:25:57.570Z,6.43
2017-07-30T03:28:25.085Z,7.07
2017-07-30T03:30:52.614Z,6.50
2017-07-30T03:33:20.193Z,8.00
2017-07-30T03:35:47.725Z,6.93
2017-07-30T03:38:15.270Z,7.73
2017-07-30T03:40:42.801Z,6.90
2017-07-30T03:43:10.364Z,7.43
2017-07-30T03:45:37.871Z,5.90
2017-07-30T03:48:05.393Z,6.10
2017-07-30T03:50:32.934Z,7.70
2017-07-30T03:53:01.323Z,6.40
2017-07-30T03:55:29.683Z,7.33
2017-07-30T03:57:58.021Z,4.43
2017-07-30T04:00:25.670Z,5.23
2017-07-30T04:02:53.394Z,4.77
2017-07-30T04:05:21.675Z,7.10
2017-07-30T04:07:49.953Z,5.13
2017-07-30T04:10:18.277Z,5.20
2017-07-30T04:12:45.837Z,9.20
2017-07-30T04:15:13.490Z,6.60
2017-07-30T04:17:41.014Z,9.57
2017-07-30T04:20:09.405Z,7.27
2017-07-30T04:22:36.913Z,5.30
2017-07-30T04:25:04.445Z,5.23
2017-07-30T04:27:31.982Z,7.50
2017-07-30T04:29:59.553Z,6.13
2017-07-30T04:32:27.083Z,6.03
2017-07-30T04:34:55.404Z,5.00
2017-07-30T04:37:22.957Z,4.93
2017-07-30T04:39:50.489Z,5.47
2017-07-30T04:42:18.862Z,4.60
2017-07-30T04:44:47.160Z,4.47
2017-07-30T04:47:14.654Z,4.83
2017-07-30T04:49:42.219Z,5.30
2017-07-30T04:52:09.758Z,4.83
2017-07-30T04:54:37.269Z,6.70
2017-07-30T04:57:04.778Z,4.40
2017-07-30T04:59:32.293Z,8.43
2017-07-30T05:01:59.785Z,5.03
2017-07-30T05:04:27.303Z,4.97
2017-07-30T05:06:54.806Z,4.90
2017-07-30T05:09:22.320Z,5.10
2017-07-30T05:11:49.823Z,4.50
2017-07-30T05:14:17.342Z,4.03
2017-07-30T05:16:44.837Z,5.07
2017-07-30T05:19:12.324Z,6.63
2017-07-30T05:21:39.846Z,11.13
2017-07-30T05:24:07.346Z,5.03
2017-07-30T05:26:34.852Z,3.40
2017-07-30T05:29:02.370Z,3.37
2017-07-30T05:31:29.883Z,4.00
2017-07-30T05:33:57.383Z,4.77
2017-07-30T05:36:24.894Z,3.63
2017-07-30T05:38:52.384Z,4.30
2017-07-30T05:41:19.899Z,5.90
2017-07-30T05:43:47.398Z,5.77
2017-07-30T05:46:15.069Z,4.17
2017-07-30T05:48:42.561Z,5.60
2017-07-30T05:51:10.073Z,3.50
2017-07-30T05:53:37.567Z,6.20
2017-07-30T05:56:05.085Z,5.20
2017-07-30T05:58:32.578Z,3.50
2017-07-30T06:01:00.095Z,4.70
2017-07-30T06:03:27.614Z,4.50
2017-07-30T06:05:55.130Z,3.40
2017-07-30T06:08:22.630Z,4.37
2017-07-30T06:10:50.924Z,3.67
2017-07-30T06:13:19.182Z,4.63
2017-07-30T06:15:46.690Z,4.12
2017-07-30T06:18:14.198Z,4.83
2017-07-30T06:20:42.474Z,2.97
2017-07-30T06:23:09.998Z,3.30
2017-07-30T06:25:37.535Z,4.83
2017-07-30T06:28:05.061Z,6.87
2017-07-30T06:30:33.335Z,3.00
2017-07-30T06:33:01.626Z,3.83
2017-07-30T06:35:29.898Z,3.40
2017-07-30T06:37:58.183Z,5.27
2017-07-30T06:40:26.448Z,3.67
2017-07-30T06:42:54.739Z,4.00
2017-07-30T06:45:22.278Z,4.83
2017-07-30T06:47:49.809Z,5.73
2017-07-30T06:50:17.301Z,3.77
2017-07-30T06:52:45.581Z,3.70
2017-07-30T06:55:13.090Z,5.80
2017-07-30T06:57:40.609Z,6.27
2017-07-30T07:00:08.898Z,3.77
2017-07-30T07:02:36.428Z,5.07
2017-07-30T07:05:03.938Z,4.40
2017-07-30T07:07:31.455Z,4.60
2017-07-30T07:09:59.758Z,4.03
2017-07-30T07:12:27.299Z,3.63
2017-07-30T07:14:56.434Z,7.13
2017-07-30T07:17:23.961Z,6.43
2017-07-30T07:19:51.489Z,3.50
2017-07-30T07:22:19.045Z,4.40
2017-07-30T07:24:46.570Z,4.60
2017-07-30T07:27:14.098Z,7.30
2017-07-30T07:29:42.378Z,2.70
2017-07-30T07:32:09.898Z,4.23
2017-07-30T07:34:37.450Z,5.33
2017-07-30T07:37:10.005Z,6.40
2017-07-30T07:47:17.039Z,3.17
2017-07-30T07:49:55.462Z,3.67
2017-07-30T07:52:23.031Z,3.17
2017-07-30T07:54:50.571Z,5.50
2017-07-30T07:57:18.069Z,2.20
2017-07-30T07:59:45.593Z,2.80
2017-07-30T08:02:13.110Z,2.90
2017-07-30T08:04:40.625Z,2.43
2017-07-30T08:07:08.122Z,3.90
2017-07-30T08:09:35.633Z,6.33
2017-07-30T08:12:03.125Z,2.80
2017-07-30T08:14:30.642Z,4.67
2017-07-30T08:16:58.141Z,3.60
2017-07-30T08:19:25.669Z,4.20
2017-07-30T08:21:53.174Z,2.37
2017-07-30T08:24:20.670Z,2.23
2017-07-30T08:26:48.189Z,2.20
2017-07-30T08:29:15.737Z,4.13
2017-07-30T08:31:43.244Z,2.83
2017-07-30T08:34:10.733Z,4.20
2017-07-30T08:36:38.242Z,3.80
2017-07-30T08:39:05.738Z,3.20
2017-07-30T08:41:33.246Z,3.23
2017-07-30T08:44:00.738Z,3.07
2017-07-30T08:46:28.245Z,1.93
2017-07-30T08:48:55.738Z,3.97
2017-07-30T08:51:24.009Z,3.10
2017-07-30T08:53:51.498Z,2.60
2017-07-30T08:56:19.013Z,2.30
2017-07-30T08:58:46.500Z,3.27
2017-07-30T09:01:14.782Z,2.47
2017-07-30T09:03:43.042Z,4.28
2017-07-30T09:06:10.546Z,2.50
2017-07-30T09:08:38.038Z,3.63
2017-07-30T09:11:05.536Z,2.27
2017-07-30T09:13:33.789Z,2.30
2017-07-30T09:16:01.317Z,4.27
2017-07-30T09:18:28.805Z,3.30
2017-07-30T09:20:56.285Z,2.43
2017-07-30T09:23:24.556Z,4.17
2017-07-30T09:25:52.814Z,5.40
2017-07-30T09:28:20.337Z,2.80
2017-07-30T09:30:47.841Z,2.57
2017-07-30T09:33:15.362Z,2.13
2017-07-30T09:35:42.849Z,2.30
2017-07-30T09:38:10.344Z,2.43
2017-07-30T09:40:37.835Z,2.60
2017-07-30T09:43:05.336Z,4.03
2017-07-30T09:45:32.833Z,3.00
2017-07-30T09:48:00.351Z,3.20
2017-07-30T09:50:28.802Z,2.10
2017-07-30T09:52:56.638Z,2.30
2017-07-30T09:55:24.317Z,2.40
2017-07-30T09:57:51.927Z,2.37
2017-07-30T10:00:20.198Z,3.47
2017-07-30T10:02:47.724Z,3.60
2017-07-30T10:05:15.215Z,5.90
2017-07-30T10:07:42.713Z,4.17
2017-07-30T10:10:10.257Z,3.97
2017-07-30T10:12:37.751Z,2.30
2017-07-30T10:15:05.276Z,2.80
2017-07-30T10:17:33.534Z,3.30
2017-07-30T10:20:01.041Z,2.13
2017-07-30T10:22:28.536Z,3.37
2017-07-30T10:24:56.050Z,4.50
2017-07-30T10:27:23.557Z,2.60
2017-07-30T10:29:51.065Z,2.63
2017-07-30T10:32:18.556Z,2.30
2017-07-30T10:34:46.062Z,3.00
2017-07-30T10:37:14.317Z,3.73
2017-07-30T10:39:41.831Z,1.60
2017-07-30T10:42:09.331Z,2.40
2017-07-30T10:44:36.844Z,2.97
2017-07-30T10:47:04.346Z,1.93
2017-07-30T10:49:31.854Z,3.20
2017-07-30T10:51:59.361Z,2.43
2017-07-30T10:54:26.849Z,3.93
2017-07-30T10:56:55.122Z,1.90
2017-07-30T10:59:22.615Z,2.13
2017-07-30T11:01:50.130Z,2.00
2017-07-30T11:04:17.624Z,2.10
2017-07-30T11:06:45.143Z,3.17
2017-07-30T11:09:12.637Z,2.23
2017-07-30T11:11:40.908Z,4.13
2017-07-30T11:14:08.435Z,1.93
2017-07-30T11:16:35.941Z,2.90
2017-07-30T11:19:03.475Z,3.73
2017-07-30T11:21:31.765Z,4.13
2017-07-30T11:24:00.052Z,2.53
2017-07-30T11:26:27.638Z,2.43
2017-07-30T11:28:55.159Z,2.37
2017-07-30T11:31:23.453Z,2.50
2017-07-30T11:33:50.980Z,2.40
2017-07-30T11:36:19.302Z,2.40
2017-07-30T11:38:46.830Z,3.47
2017-07-30T11:41:15.097Z,3.80
2017-07-30T11:43:42.608Z,2.37
2017-07-30T11:46:10.105Z,2.70
2017-07-30T11:48:38.493Z,3.97
2017-07-30T11:51:05.990Z,3.87
2017-07-30T11:53:33.493Z,2.23
2017-07-30T11:56:00.986Z,2.30
2017-07-30T11:58:29.262Z,3.10
2017-07-30T12:00:56.794Z,4.30
2017-07-30T12:03:24.366Z,2.53
2017-07-30T12:05:51.865Z,2.83
2017-07-30T12:08:19.374Z,3.30
2017-07-30T12:10:46.875Z,6.83
2017-07-30T12:13:14.380Z,2.77
2017-07-30T12:15:41.892Z,4.77
2017-07-30T12:18:09.382Z,4.27
2017-07-30T12:20:36.889Z,2.53
2017-07-30T12:23:04.394Z,2.47
2017-07-30T12:25:31.911Z,2.23
2017-07-30T12:28:00.174Z,3.33
2017-07-30T12:30:27.679Z,3.40
2017-07-30T12:32:55.170Z,4.13
2017-07-30T12:35:22.701Z,3.30
2017-07-30T12:37:50.197Z,7.00
2017-07-30T12:40:17.694Z,3.63
2017-07-30T12:42:45.221Z,5.70
2017-07-30T12:45:13.506Z,7.80
2017-07-30T12:47:41.015Z,2.50
2017-07-30T12:50:08.506Z,2.37
2017-07-30T12:52:36.062Z,4.73
2017-07-30T12:55:03.565Z,3.90
2017-07-30T12:57:31.833Z,2.50
2017-07-30T13:00:00.088Z,2.37
2017-07-30T13:02:27.594Z,3.20
2017-07-30T13:04:55.085Z,3.63
2017-07-30T13:07:22.568Z,3.00
2017-07-30T13:09:50.068Z,2.67
2017-07-30T13:12:17.549Z,3.17
2017-07-30T13:14:45.058Z,4.60
2017-07-30T13:17:12.550Z,2.73
2017-07-30T13:19:40.059Z,2.80
2017-07-30T13:22:07.549Z,4.00
2017-07-30T13:24:35.818Z,2.57
2017-07-30T13:27:04.098Z,2.73
2017-07-30T13:29:32.399Z,3.83
2017-07-30T13:31:59.885Z,4.73
2017-07-30T13:34:27.393Z,2.80
2017-07-30T13:36:54.906Z,7.07
2017-07-30T13:39:22.410Z,3.40
2017-07-30T13:41:50.690Z,3.70
2017-07-30T13:44:18.949Z,2.50
2017-07-30T13:46:46.482Z,2.87
2017-07-30T13:49:13.978Z,3.10
2017-07-30T13:51:41.497Z,2.40
2017-07-30T13:54:08.994Z,4.60
2017-07-30T13:56:37.289Z,3.30
2017-07-30T13:59:04.781Z,2.20
2017-07-30T14:01:32.306Z,2.90
2017-07-30T14:03:59.801Z,2.80
2017-07-30T14:06:27.300Z,3.60
2017-07-30T14:08:55.573Z,3.03
2017-07-30T14:11:23.841Z,4.73
2017-07-30T14:13:52.123Z,4.40
2017-07-30T14:16:20.390Z,2.90
2017-07-30T14:18:47.893Z,3.13
2017-07-30T14:21:15.377Z,3.07
2017-07-30T14:23:42.886Z,4.23
2017-07-30T14:26:11.155Z,3.40
2017-07-30T14:28:39.456Z,6.60
2017-07-30T14:31:06.955Z,3.80
2017-07-30T14:33:34.446Z,3.13
2017-07-30T14:36:02.718Z,3.00
2017-07-30T14:38:30.218Z,4.28
2017-07-30T14:40:57.738Z,3.57
2017-07-30T14:43:25.237Z,5.30
2017-07-30T14:45:52.747Z,3.90
2017-07-30T14:48:20.246Z,2.60
2017-07-30T14:50:47.767Z,4.33
2017-07-30T14:53:15.282Z,2.60
2017-07-30T14:55:42.818Z,3.60
2017-07-30T14:58:10.321Z,5.17
2017-07-30T15:00:37.822Z,3.97
2017-07-30T15:03:06.102Z,3.00
2017-07-30T15:05:34.360Z,3.57
2017-07-30T15:08:01.867Z,5.27
2017-07-30T15:10:29.362Z,5.27
2017-07-30T15:12:56.869Z,3.40
2017-07-30T15:15:24.370Z,3.77
2017-07-30T15:17:51.907Z,12.00
2017-07-30T15:20:19.437Z,3.20
2017-07-30T15:22:47.762Z,3.50
2017-07-30T15:25:15.261Z,2.87
2017-07-30T15:27:43.522Z,3.40
2017-07-30T15:30:11.034Z,3.00
2017-07-30T15:32:38.541Z,8.53
2017-07-30T15:35:06.054Z,4.30
2017-07-30T15:37:33.562Z,3.67
2017-07-30T15:40:01.066Z,3.80
2017-07-30T15:42:28.562Z,4.93
2017-07-30T15:44:56.071Z,2.80
2017-07-30T15:47:23.571Z,3.23
2017-07-30T15:49:51.098Z,4.07
2017-07-30T15:52:18.594Z,3.43
2017-07-30T15:54:46.094Z,7.50
2017-07-30T15:57:14.370Z,3.07
2017-07-30T15:59:42.636Z,4.37
2017-07-30T16:02:10.926Z,4.17
2017-07-30T16:04:39.181Z,4.20
2017-07-30T16:07:06.690Z,2.83
2017-07-30T16:09:34.185Z,3.47
2017-07-30T16:12:01.689Z,4.60
2017-07-30T16:14:29.947Z,6.50
2017-07-30T16:16:57.469Z,3.37
2017-07-30T16:19:24.965Z,4.63
2017-07-30T16:21:52.490Z,6.73
2017-07-30T16:24:20.010Z,3.00
2017-07-30T16:26:47.506Z,3.40
2017-07-30T16:29:15.021Z,4.10
2017-07-30T16:31:42.535Z,7.00
2017-07-30T16:34:10.037Z,8.83
2017-07-30T16:36:38.292Z,9.07
2017-07-30T16:39:05.814Z,16.23
2017-07-30T16:41:33.318Z,9.60
2017-07-30T16:44:01.710Z,14.17
2017-07-30T16:46:29.968Z,9.10
2017-07-30T16:48:57.466Z,8.23
2017-07-30T16:51:24.985Z,12.63
2017-07-30T16:53:52.481Z,7.63
2017-07-30T16:56:19.998Z,9.60
2017-07-30T16:58:47.504Z,18.87
2017-07-30T17:01:15.013Z,11.20
2017-07-30T17:03:42.507Z,6.47
2017-07-30T17:06:10.785Z,12.50
2017-07-30T17:08:38.292Z,8.30
2017-07-30T17:11:05.824Z,6.37
2017-07-30T17:13:33.318Z,23.73
2017-07-30T17:16:00.817Z,14.07
2017-07-30T17:18:29.096Z,30.67
2017-07-30T17:20:57.362Z,13.00
2017-07-30T17:23:25.638Z,17.80
2017-07-30T17:25:53.904Z,21.70
2017-07-30T17:28:21.421Z,18.03
2017-07-30T17:30:48.917Z,15.80
2017-07-30T17:33:16.435Z,12.90
2017-07-30T17:35:43.933Z,18.30
2017-07-30T17:38:11.613Z,17.33
2017-07-30T17:40:39.886Z,16.93
2017-07-30T17:43:07.385Z,16.90
2017-07-30T17:45:34.912Z,22.83
2017-07-30T17:48:03.178Z,21.37
2017-07-30T17:50:30.690Z,16.73
2017-07-30T17:52:58.202Z,15.87
2017-07-30T17:55:25.736Z,28.97
2017-07-30T17:57:53.238Z,15.90
2017-07-30T18:00:20.758Z,29.30
2017-07-30T18:02:48.262Z,9.60
2017-07-30T18:05:15.794Z,11.83
2017-07-30T18:07:43.288Z,18.23
2017-07-30T18:10:10.781Z,16.00
2017-07-30T18:12:38.297Z,15.43
2017-07-30T18:15:05.794Z,13.37
2017-07-30T18:17:33.308Z,14.00
2017-07-30T18:20:01.565Z,18.53
2017-07-30T18:22:29.069Z,9.80
2017-07-30T18:27:35.946Z,13.63
2017-07-30T18:30:06.429Z,11.60
2017-07-30T18:32:46.014Z,8.53
2017-07-30T18:38:00.746Z,8.73
2017-07-30T18:40:43.502Z,17.43
2017-07-30T18:43:13.212Z,13.53
2017-07-30T18:45:42.138Z,13.03
2017-07-30T18:48:12.674Z,16.83
2017-07-30T18:50:42.258Z,10.10
2017-07-30T18:53:11.172Z,9.97
2017-07-30T18:55:40.276Z,11.60
2017-07-30T18:58:20.182Z,8.03
2017-07-30T19:00:49.805Z,8.97
2017-07-30T19:03:17.619Z,11.00
2017-07-30T19:05:46.691Z,14.07
2017-07-30T19:08:15.880Z,15.70
2017-07-30T19:10:48.414Z,12.57
2017-07-30T19:13:17.989Z,12.80
2017-07-30T19:15:48.367Z,15.47
2017-07-30T19:18:17.081Z,11.67
2017-07-30T19:20:44.963Z,19.50
2017-07-30T19:23:12.508Z,11.77
2017-07-30T19:25:40.131Z,12.90
2017-07-30T19:28:08.421Z,12.00
2017-07-30T19:30:36.688Z,12.17
2017-07-30T19:33:04.352Z,8.97
2017-07-30T19:35:32.632Z,11.53
2017-07-30T19:38:00.947Z,10.70
2017-07-30T19:40:28.466Z,9.33
2017-07-30T19:42:55.982Z,11.10
2017-07-30T19:45:23.493Z,8.17
2017-07-30T19:47:51.761Z,8.83
2017-07-30T19:50:20.070Z,7.17
2017-07-30T19:52:47.586Z,11.00
2017-07-30T19:55:15.106Z,13.03
2017-07-30T19:57:42.614Z,19.33
2017-07-30T20:00:10.906Z,13.53
2017-07-30T20:02:39.175Z,7.57
2017-07-30T20:05:07.479Z,9.90
2017-07-30T20:07:34.991Z,10.57
2017-07-30T20:10:02.497Z,8.33
2017-07-30T20:12:30.033Z,10.03
2017-07-30T20:14:58.301Z,6.50
2017-07-30T20:17:26.610Z,7.40
2017-07-30T20:19:54.208Z,9.30
2017-07-30T20:22:21.756Z,11.87
2017-07-30T20:24:49.275Z,8.33
2017-07-30T20:27:16.809Z,8.30
2017-07-30T20:29:44.329Z,5.30
2017-07-30T20:32:11.877Z,8.63
2017-07-30T20:34:39.380Z,8.33
2017-07-30T20:37:06.908Z,12.93
2017-07-30T20:39:34.431Z,4.87
2017-07-30T20:42:02.709Z,8.63
2017-07-30T20:44:31.012Z,13.80
2017-07-30T20:46:58.517Z,8.70
2017-07-30T20:49:26.048Z,8.60
2017-07-30T20:51:53.556Z,9.73
2017-07-30T20:54:21.869Z,8.70
2017-07-30T20:56:49.377Z,6.87
2017-07-30T20:59:16.913Z,9.67
2017-07-30T21:01:44.417Z,6.55
2017-07-30T21:04:12.689Z,8.13
2017-07-30T21:06:40.973Z,8.47
2017-07-30T21:09:08.487Z,7.00
2017-07-30T21:11:36.002Z,9.83
2017-07-30T21:14:03.523Z,6.47
2017-07-30T21:16:31.219Z,8.52
2017-07-30T21:18:59.403Z,8.07
2017-07-30T21:21:26.957Z,13.27
2017-07-30T21:23:54.556Z,8.63
2017-07-30T21:26:22.173Z,7.00
2017-07-30T21:28:50.593Z,14.70
2017-07-30T21:31:18.118Z,7.72
2017-07-30T21:33:45.672Z,9.32
2017-07-30T21:36:14.117Z,15.20
2017-07-30T21:38:41.682Z,17.53
2017-07-30T21:41:09.355Z,9.47
2017-07-30T21:43:36.918Z,7.83
2017-07-30T21:46:04.634Z,10.17
2017-07-30T21:48:32.203Z,7.90
2017-07-30T21:50:59.731Z,8.75
2017-07-30T21:53:27.310Z,9.47
2017-07-30T21:55:54.861Z,5.47
2017-07-30T21:58:22.425Z,11.68
2017-07-30T22:00:49.982Z,8.63
2017-07-30T22:03:17.615Z,7.95
2017-07-30T22:05:45.393Z,12.23
2017-07-30T22:08:13.901Z,15.40
2017-07-30T22:10:41.478Z,7.55
2017-07-30T22:13:09.257Z,8.73
2017-07-30T22:15:36.961Z,5.60
2017-07-30T22:18:05.331Z,8.20
2017-07-30T22:20:32.914Z,11.70
2017-07-30T22:23:00.543Z,6.03
2017-07-30T22:25:28.142Z,9.00
2017-07-30T22:27:55.796Z,11.00
2017-07-30T22:30:23.365Z,7.40
2017-07-30T22:32:50.957Z,13.35
2017-07-30T22:35:18.551Z,8.52
2017-07-30T22:37:46.241Z,7.30
2017-07-30T22:40:13.913Z,12.98
2017-07-30T22:42:42.512Z,9.50
2017-07-30T22:45:10.215Z,8.20
2017-07-30T22:47:37.781Z,8.07
2017-07-30T22:50:05.374Z,9.48
2017-07-30T22:52:33.784Z,12.50
2017-07-30T22:55:01.461Z,11.00
2017-07-30T22:57:29.197Z,11.82
2017-07-30T22:59:56.945Z,8.52
2017-07-30T23:02:24.501Z,8.55
2017-07-30T23:04:52.855Z,8.20
2017-07-30T23:07:20.472Z,12.30
2017-07-30T23:09:48.103Z,13.98
2017-07-30T23:12:17.168Z,9.50
2017-07-30T23:14:45.663Z,7.40
2017-07-30T23:17:13.663Z,10.17
2017-07-30T23:19:42.214Z,12.43
2017-07-30T23:22:09.936Z,14.25
2017-07-30T23:24:40.788Z,9.60
2017-07-30T23:27:08.616Z,16.77
2017-07-30T23:29:36.642Z,13.10
2017-07-30T23:32:04.357Z,8.60
2017-07-30T23:34:32.034Z,11.10
2017-07-30T23:36:59.884Z,8.30
2017-07-30T23:39:29.284Z,8.00
2017-07-30T23:41:59.953Z,9.83
2017-07-30T23:44:27.652Z,15.37
2017-07-30T23:46:59.761Z,8.33
2017-07-30T23:49:28.529Z,10.40
2017-07-30T23:51:57.355Z,9.10
2017-07-30T23:54:25.236Z,7.10
2017-07-30T23:56:53.820Z,6.70
2017-07-30T23:59:22.558Z,10.93
